Myerstown, Pennsylvania
Current Conditions -  °F | °C
As of 12:58 AM on Wednesday 28 Jan 2015 (Local Time) from KMUI Reporting Station
Clear Clear  
Wind Chill:   Ceiling: Unl
Heat Index: 17°   Visibility: 10mi
Dew Point:   Wind: 18mph
Humidity: 49%   Direction: 340°NNW
Pressure: 29.97"   Gusts: 31mph
Location:  40.37°N, 76.3°W
Report Text: KMUI 280558Z AUTO 34016G27KT 310V010 10SM CLR M08/M17 A2997 RMK AO2 PK WND 35028/19 SLP159 T10841174 11032 21085 52017
Loading
Personal Weather Stations






























Interactive Weather Map New forecast layout! Learn more

10-Day Weather Forecast

Advertisements
Track Severe Weather on mobile